createdAt,value
2022-11-29T00:01:11.866Z,19.83
2022-11-29T00:03:38.685Z,21.03
2022-11-29T00:06:07.393Z,17.83
2022-11-29T00:08:35.005Z,18.50
2022-11-29T00:11:10.194Z,19.60
2022-11-29T00:13:37.418Z,18.37
2022-11-29T00:16:06.417Z,19.20
2022-11-29T00:18:33.346Z,18.67
2022-11-29T00:21:00.398Z,18.47
2022-11-29T00:23:27.231Z,19.40
2022-11-29T00:25:53.981Z,18.53
2022-11-29T00:28:20.701Z,19.07
2022-11-29T00:30:47.500Z,18.13
2022-11-29T00:33:14.265Z,18.20
2022-11-29T00:35:40.936Z,18.47
2022-11-29T00:38:07.850Z,18.23
2022-11-29T00:40:34.555Z,18.53
2022-11-29T00:43:01.292Z,19.30
2022-11-29T00:45:28.191Z,18.33
2022-11-29T00:47:54.994Z,18.80
2022-11-29T00:50:21.770Z,17.13
2022-11-29T00:52:48.697Z,18.20
2022-11-29T00:55:15.664Z,18.50
2022-11-29T00:57:42.461Z,19.93
2022-11-29T01:00:09.824Z,18.80
2022-11-29T01:02:36.628Z,18.63
2022-11-29T01:05:03.430Z,19.33
2022-11-29T01:07:30.295Z,18.40
2022-11-29T01:09:57.034Z,18.67
2022-11-29T01:12:23.792Z,18.73
2022-11-29T01:14:50.486Z,19.30
2022-11-29T01:17:17.230Z,16.43
2022-11-29T01:19:49.304Z,18.63
2022-11-29T01:22:17.511Z,18.60
2022-11-29T01:24:44.604Z,18.33
2022-11-29T01:27:11.678Z,19.33
2022-11-29T01:29:39.024Z,18.17
2022-11-29T01:32:05.744Z,18.30
2022-11-29T01:34:32.435Z,18.70
2022-11-29T01:36:59.215Z,18.43
2022-11-29T01:39:26.037Z,17.83
2022-11-29T01:41:52.830Z,17.67
2022-11-29T01:44:19.497Z,17.93
2022-11-29T01:46:47.816Z,19.40
2022-11-29T01:49:21.041Z,18.33
2022-11-29T01:51:53.714Z,18.60
2022-11-29T01:54:20.927Z,19.07
2022-11-29T01:56:49.449Z,17.97
2022-11-29T01:59:19.160Z,17.87
2022-11-29T02:01:46.163Z,19.33
2022-11-29T02:04:13.770Z,20.10
2022-11-29T02:06:41.729Z,18.47
2022-11-29T02:09:23.253Z,18.00
2022-11-29T02:12:11.427Z,16.63
2022-11-29T02:14:44.398Z,18.60
2022-11-29T02:17:30.505Z,17.10
2022-11-29T02:20:20.226Z,18.17
2022-11-29T02:22:59.513Z,18.27
2022-11-29T02:26:15.711Z,19.30
2022-11-29T02:28:58.097Z,17.70
2022-11-29T02:31:33.672Z,19.23
2022-11-29T02:34:15.239Z,18.23
2022-11-29T02:37:26.346Z,16.50
2022-11-29T02:39:58.838Z,17.43
2022-11-29T02:42:52.580Z,18.53
2022-11-29T02:45:28.940Z,18.13
2022-11-29T02:48:15.299Z,18.53
2022-11-29T02:51:06.590Z,17.10
2022-11-29T02:53:44.046Z,18.37
2022-11-29T02:56:19.720Z,19.40
2022-11-29T02:59:10.581Z,17.40
2022-11-29T03:02:03.994Z,17.70
2022-11-29T03:04:49.551Z,17.17
2022-11-29T03:07:48.904Z,18.37
2022-11-29T03:10:18.536Z,17.77
2022-11-29T03:12:48.318Z,18.03
2022-11-29T03:15:30.274Z,18.60
2022-11-29T03:18:04.346Z,17.00
2022-11-29T03:20:58.470Z,17.30
2022-11-29T03:23:45.517Z,18.00
2022-11-29T03:26:19.167Z,18.73
2022-11-29T03:28:52.779Z,16.73
2022-11-29T03:31:23.711Z,17.53
2022-11-29T03:33:58.990Z,17.63
2022-11-29T03:37:04.416Z,17.50
2022-11-29T03:39:46.714Z,17.00
2022-11-29T03:42:28.707Z,18.00
2022-11-29T03:45:16.469Z,18.70
2022-11-29T03:47:53.626Z,20.00
2022-11-29T03:50:52.543Z,18.13
2022-11-29T03:53:37.249Z,18.50
2022-11-29T03:56:28.149Z,18.93
2022-11-29T03:59:13.242Z,19.10
2022-11-29T04:01:49.130Z,18.73
2022-11-29T04:04:24.475Z,18.40
2022-11-29T04:07:09.798Z,18.23
2022-11-29T04:09:51.733Z,19.57
2022-11-29T04:13:00.908Z,19.93
2022-11-29T04:15:33.571Z,18.37
2022-11-29T04:18:12.523Z,20.50
2022-11-29T04:21:13.348Z,20.07
2022-11-29T04:24:01.719Z,19.40
2022-11-29T04:27:09.631Z,18.80
2022-11-29T04:29:48.246Z,20.37
2022-11-29T04:32:17.679Z,20.47
2022-11-29T04:35:06.060Z,20.47
2022-11-29T04:38:01.717Z,18.73
2022-11-29T04:41:02.445Z,20.50
2022-11-29T04:43:35.081Z,19.80
2022-11-29T04:46:39.669Z,20.40
2022-11-29T04:49:29.033Z,18.83
2022-11-29T04:52:13.986Z,20.40
2022-11-29T04:55:11.718Z,21.63
2022-11-29T04:57:44.078Z,18.50
2022-11-29T05:00:19.296Z,18.13
2022-11-29T05:03:01.942Z,19.33
2022-11-29T05:06:00.721Z,19.67
2022-11-29T05:08:47.765Z,19.83
2022-11-29T05:11:23.429Z,19.07
2022-11-29T05:13:59.103Z,20.00
2022-11-29T05:16:47.700Z,19.53
2022-11-29T05:19:51.903Z,18.80
2022-11-29T05:22:34.176Z,16.53
2022-11-29T05:25:31.295Z,15.33
2022-11-29T05:28:25.844Z,14.97
2022-11-29T05:31:18.905Z,14.30
2022-11-29T05:34:00.914Z,7.60
2022-11-29T05:36:43.563Z,7.23
2022-11-29T05:39:34.435Z,6.53
2022-11-29T05:42:16.282Z,7.23
2022-11-29T05:44:53.977Z,6.13
2022-11-29T05:47:48.974Z,6.63
2022-11-29T05:50:41.774Z,6.03
2022-11-29T05:53:27.234Z,6.73
2022-11-29T05:56:16.673Z,6.80
2022-11-29T05:58:49.429Z,7.00
2022-11-29T06:01:29.595Z,7.10
2022-11-29T06:04:41.230Z,7.77
2022-11-29T06:07:30.926Z,8.80
2022-11-29T06:10:15.079Z,7.00
2022-11-29T06:12:43.581Z,7.53
2022-11-29T06:15:36.314Z,8.27
2022-11-29T06:18:40.490Z,7.60
2022-11-29T06:21:45.290Z,8.10
2022-11-29T06:24:39.888Z,7.87
2022-11-29T06:27:09.360Z,8.90
2022-11-29T06:29:51.868Z,7.90
2022-11-29T06:32:37.401Z,9.37
2022-11-29T06:35:11.239Z,7.60
2022-11-29T06:37:41.850Z,8.30
2022-11-29T06:40:16.015Z,8.00
2022-11-29T06:42:42.957Z,8.47
2022-11-29T06:45:14.123Z,6.77
2022-11-29T06:47:57.951Z,9.10
2022-11-29T06:51:02.075Z,8.80
2022-11-29T06:53:41.899Z,8.60
2022-11-29T06:56:27.383Z,8.37
2022-11-29T06:58:57.285Z,9.73
2022-11-29T07:02:04.403Z,9.70
2022-11-29T07:05:01.405Z,11.90
2022-11-29T07:07:28.549Z,11.47
2022-11-29T07:10:00.364Z,11.87
2022-11-29T07:12:27.376Z,12.93
2022-11-29T07:14:54.445Z,12.40
2022-11-29T07:18:11.129Z,12.50
2022-11-29T07:21:02.675Z,11.83
2022-11-29T07:23:49.719Z,13.00
2022-11-29T07:26:35.033Z,11.43
2022-11-29T07:29:25.882Z,12.63
2022-11-29T07:32:26.830Z,13.00
2022-11-29T07:35:03.689Z,11.77
2022-11-29T07:37:51.978Z,13.27
2022-11-29T07:40:22.230Z,12.87
2022-11-29T07:43:22.234Z,11.77
2022-11-29T07:45:49.970Z,10.57
2022-11-29T07:48:17.698Z,10.40
2022-11-29T07:50:45.271Z,10.00
2022-11-29T07:53:17.737Z,11.20
2022-11-29T07:55:45.149Z,11.03
2022-11-29T07:58:13.036Z,11.93
2022-11-29T08:00:41.961Z,13.40
2022-11-29T08:03:09.714Z,10.20
2022-11-29T08:05:37.856Z,10.07
2022-11-29T08:08:05.652Z,10.47
2022-11-29T08:10:32.452Z,9.97
2022-11-29T08:12:59.309Z,11.13
2022-11-29T08:15:26.288Z,9.50
2022-11-29T08:17:53.589Z,9.20
2022-11-29T08:20:20.635Z,8.00
2022-11-29T08:22:58.746Z,10.87
2022-11-29T08:25:27.215Z,9.17
2022-11-29T08:27:57.057Z,11.40
2022-11-29T08:30:24.162Z,8.90
2022-11-29T08:32:51.957Z,9.00
2022-11-29T08:35:20.282Z,8.10
2022-11-29T08:37:47.330Z,9.27
2022-11-29T08:40:14.771Z,8.10
2022-11-29T08:42:41.665Z,7.73
2022-11-29T08:45:09.759Z,7.40
2022-11-29T08:47:37.708Z,6.23
2022-11-29T08:50:22.550Z,7.77
2022-11-29T08:53:08.941Z,5.70
2022-11-29T08:55:39.977Z,6.13
2022-11-29T08:58:10.071Z,5.27
2022-11-29T09:00:37.749Z,6.10
2022-11-29T09:03:25.425Z,6.50
2022-11-29T09:05:52.836Z,6.00
2022-11-29T09:08:19.965Z,6.30
2022-11-29T09:10:47.520Z,7.10
2022-11-29T09:13:14.962Z,6.53
2022-11-29T09:15:43.666Z,6.90
2022-11-29T09:18:10.663Z,6.87
2022-11-29T09:20:37.414Z,6.40
2022-11-29T09:23:04.801Z,6.27
2022-11-29T09:25:31.653Z,6.83
2022-11-29T09:28:02.789Z,6.93
2022-11-29T09:30:35.008Z,9.30
2022-11-29T09:33:05.223Z,8.43
2022-11-29T09:35:32.998Z,8.47
2022-11-29T09:38:00.237Z,8.73
2022-11-29T09:41:01.483Z,10.27
2022-11-29T09:43:50.111Z,11.30
2022-11-29T09:46:45.686Z,10.33
2022-11-29T09:49:30.627Z,11.70
2022-11-29T09:52:20.040Z,10.63
2022-11-29T09:54:55.467Z,12.53
2022-11-29T09:57:25.002Z,11.33
2022-11-29T09:59:56.786Z,12.60
2022-11-29T10:02:35.227Z,13.23
2022-11-29T10:05:25.566Z,13.87
2022-11-29T10:07:58.870Z,12.30
2022-11-29T10:10:33.433Z,12.80
2022-11-29T10:13:26.551Z,12.70
2022-11-29T10:15:57.889Z,13.10
2022-11-29T10:19:08.636Z,13.97
2022-11-29T10:21:38.455Z,14.17
2022-11-29T10:24:13.475Z,14.87
2022-11-29T10:26:41.427Z,12.53
2022-11-29T10:29:14.016Z,13.57
2022-11-29T10:31:44.115Z,11.60
2022-11-29T10:34:17.463Z,13.37
2022-11-29T10:37:04.633Z,13.17
2022-11-29T10:39:39.721Z,13.30
2022-11-29T10:42:33.975Z,12.53
2022-11-29T10:45:00.975Z,9.63
2022-11-29T10:47:27.990Z,11.83
2022-11-29T10:49:54.961Z,12.83
2022-11-29T10:52:23.351Z,9.23
2022-11-29T10:54:58.513Z,9.30
2022-11-29T10:57:25.569Z,10.30
2022-11-29T11:00:18.607Z,10.07
2022-11-29T11:02:45.432Z,9.50
2022-11-29T11:05:18.848Z,9.17
2022-11-29T11:07:47.381Z,8.93
2022-11-29T11:10:29.622Z,8.57
2022-11-29T11:13:04.881Z,9.10
2022-11-29T11:15:32.867Z,8.67
2022-11-29T11:18:06.701Z,8.63
2022-11-29T11:20:37.453Z,7.97
2022-11-29T11:23:07.491Z,9.50
2022-11-29T11:25:39.125Z,9.40
2022-11-29T11:28:25.261Z,9.73
2022-11-29T11:30:55.788Z,9.30
2022-11-29T11:33:26.959Z,10.03
2022-11-29T11:36:02.831Z,8.80
2022-11-29T11:38:30.355Z,8.53
2022-11-29T11:41:15.791Z,10.27
2022-11-29T11:43:49.376Z,9.20
2022-11-29T11:46:18.104Z,10.80
2022-11-29T11:48:46.693Z,10.90
2022-11-29T11:51:25.514Z,10.57
2022-11-29T11:53:56.890Z,9.93
2022-11-29T11:56:24.516Z,8.50
2022-11-29T11:58:57.964Z,10.63
2022-11-29T12:01:27.359Z,10.60
2022-11-29T12:04:02.981Z,11.40
2022-11-29T12:07:11.242Z,11.37
2022-11-29T12:09:55.938Z,9.60
2022-11-29T12:12:29.954Z,12.20
2022-11-29T12:15:05.697Z,10.33
2022-11-29T12:18:01.018Z,10.07
2022-11-29T12:21:11.178Z,9.20
2022-11-29T12:23:57.641Z,9.53
2022-11-29T12:26:55.820Z,8.57
2022-11-29T12:29:19.210Z,9.13
2022-11-29T12:32:14.538Z,8.40
2022-11-29T12:35:01.109Z,9.50
2022-11-29T12:37:48.344Z,8.87
2022-11-29T12:40:32.498Z,9.40
2022-11-29T12:43:10.835Z,9.40
2022-11-29T12:45:49.448Z,9.90
2022-11-29T12:48:35.007Z,10.23
2022-11-29T12:51:23.190Z,11.20
2022-11-29T12:54:03.690Z,9.93
2022-11-29T12:56:38.474Z,10.27
2022-11-29T12:59:20.852Z,9.83
2022-11-29T13:01:47.624Z,9.60
2022-11-29T13:04:41.835Z,8.20
2022-11-29T13:07:23.906Z,9.20
2022-11-29T13:10:23.129Z,9.00
2022-11-29T13:13:00.925Z,8.70
2022-11-29T13:16:05.929Z,10.37
2022-11-29T13:19:01.816Z,8.60
2022-11-29T13:22:05.832Z,9.30
2022-11-29T13:24:50.651Z,9.43
2022-11-29T13:27:22.426Z,8.03
2022-11-29T13:29:49.318Z,8.20
2022-11-29T13:32:40.013Z,8.63
2022-11-29T13:35:18.511Z,8.30
2022-11-29T13:37:59.115Z,9.67
2022-11-29T13:40:28.830Z,8.73
2022-11-29T13:42:55.513Z,9.17
2022-11-29T13:45:29.891Z,8.60
2022-11-29T13:48:00.236Z,9.27
2022-11-29T13:50:40.685Z,9.20
2022-11-29T13:53:19.906Z,8.53
2022-11-29T13:55:48.381Z,9.23
2022-11-29T13:58:17.448Z,8.90
2022-11-29T14:00:44.680Z,9.30
2022-11-29T14:03:23.502Z,9.57
2022-11-29T14:06:03.631Z,9.47
2022-11-29T14:09:16.787Z,10.60
2022-11-29T14:11:42.560Z,10.43
2022-11-29T14:14:21.304Z,10.93
2022-11-29T14:16:52.342Z,8.63
2022-11-29T14:19:19.591Z,10.30
2022-11-29T14:22:07.161Z,8.30
2022-11-29T14:24:36.865Z,9.83
2022-11-29T14:27:06.778Z,9.80
2022-11-29T14:29:53.501Z,10.20
2022-11-29T14:32:45.793Z,9.77
2022-11-29T14:35:13.129Z,11.37
2022-11-29T14:38:10.637Z,29.33
2022-11-29T14:41:03.163Z,15.83
2022-11-29T14:43:35.658Z,11.70
2022-11-29T14:46:14.620Z,10.90
2022-11-29T14:48:54.738Z,10.47
2022-11-29T14:51:23.890Z,12.07
2022-11-29T14:54:13.195Z,11.57
2022-11-29T14:56:45.007Z,14.73
2022-11-29T14:59:46.703Z,10.87
2022-11-29T15:02:34.152Z,10.33
2022-11-29T15:05:33.652Z,8.53
2022-11-29T15:08:27.117Z,9.80
2022-11-29T15:11:01.012Z,9.20
2022-11-29T15:13:36.177Z,9.77
2022-11-29T15:16:23.896Z,9.90
2022-11-29T15:19:15.754Z,10.00
2022-11-29T15:21:58.012Z,9.30
2022-11-29T15:24:28.788Z,9.17
2022-11-29T15:26:56.784Z,9.57
2022-11-29T15:29:23.720Z,9.60
2022-11-29T15:31:54.510Z,8.90
2022-11-29T15:34:37.046Z,10.10
2022-11-29T15:37:04.966Z,10.27
2022-11-29T15:39:33.116Z,9.17
2022-11-29T15:42:02.721Z,9.20
2022-11-29T15:44:32.673Z,9.97
2022-11-29T15:47:21.458Z,9.27
2022-11-29T15:49:48.872Z,10.23
2022-11-29T15:52:31.098Z,11.13
2022-11-29T15:55:05.878Z,9.83
2022-11-29T15:57:38.169Z,11.30
2022-11-29T16:00:15.666Z,10.57
2022-11-29T16:02:50.219Z,10.73
2022-11-29T16:05:22.921Z,9.60
2022-11-29T16:08:03.732Z,10.20
2022-11-29T16:10:43.679Z,10.93
2022-11-29T16:13:25.859Z,11.00
2022-11-29T16:16:16.015Z,10.67
2022-11-29T16:18:45.431Z,10.60
2022-11-29T16:21:22.606Z,11.23
2022-11-29T16:23:49.640Z,10.90
2022-11-29T16:26:27.421Z,10.60
2022-11-29T16:28:59.140Z,11.17
2022-11-29T16:31:37.991Z,28.10
2022-11-29T16:34:09.886Z,11.40
2022-11-29T16:36:37.046Z,11.00
2022-11-29T16:39:23.949Z,11.30
2022-11-29T16:42:25.757Z,10.87
2022-11-29T16:45:01.916Z,10.80
2022-11-29T16:47:57.980Z,9.80
2022-11-29T16:50:26.932Z,9.93
2022-11-29T16:52:56.787Z,10.93
2022-11-29T16:55:24.359Z,11.30
2022-11-29T16:57:52.831Z,11.73
2022-11-29T17:00:32.626Z,11.63
2022-11-29T17:03:00.045Z,10.70
2022-11-29T17:05:27.183Z,12.40
2022-11-29T17:07:54.544Z,13.10
2022-11-29T17:10:25.003Z,11.67
2022-11-29T17:12:51.891Z,10.87
2022-11-29T17:15:18.831Z,12.10
2022-11-29T17:17:45.918Z,13.40
2022-11-29T17:20:13.781Z,11.70
2022-11-29T17:22:41.445Z,13.53
2022-11-29T17:25:09.053Z,14.90
2022-11-29T17:27:36.417Z,13.90
2022-11-29T17:30:04.903Z,12.77
2022-11-29T17:32:34.608Z,13.60
2022-11-29T17:35:01.500Z,13.83
2022-11-29T17:37:30.596Z,12.97
2022-11-29T17:39:57.529Z,15.50
2022-11-29T17:42:24.455Z,14.10
2022-11-29T17:44:51.312Z,15.20
2022-11-29T17:47:18.317Z,14.77
2022-11-29T17:49:46.222Z,15.80
2022-11-29T17:52:13.117Z,15.70
2022-11-29T17:54:40.544Z,15.27
2022-11-29T17:57:07.470Z,16.73
2022-11-29T17:59:34.339Z,16.40
2022-11-29T18:02:02.168Z,17.30
2022-11-29T18:04:29.510Z,16.93
2022-11-29T18:06:56.254Z,15.27
2022-11-29T18:09:23.558Z,18.47
2022-11-29T18:11:50.854Z,17.07
2022-11-29T18:14:28.380Z,16.87
2022-11-29T18:16:55.503Z,17.70
2022-11-29T18:19:23.601Z,18.60
2022-11-29T18:21:51.306Z,19.37
2022-11-29T18:24:18.579Z,17.47
2022-11-29T18:26:45.969Z,16.50
2022-11-29T18:29:12.665Z,18.93
2022-11-29T18:31:42.190Z,17.23
2022-11-29T18:34:10.529Z,19.50
2022-11-29T18:36:42.921Z,18.70
2022-11-29T18:39:14.264Z,19.37
2022-11-29T18:41:44.906Z,19.40
2022-11-29T18:44:14.649Z,21.40
2022-11-29T18:46:43.532Z,20.63
2022-11-29T18:49:13.538Z,21.40
2022-11-29T18:51:43.076Z,19.47
2022-11-29T18:54:10.530Z,20.33
2022-11-29T18:56:38.583Z,21.57
2022-11-29T18:59:10.409Z,19.53
2022-11-29T19:01:41.158Z,21.00
2022-11-29T19:04:11.091Z,20.57
2022-11-29T19:06:39.949Z,21.47
2022-11-29T19:09:11.792Z,19.13
2022-11-29T19:11:39.185Z,22.83
2022-11-29T19:14:11.881Z,23.80
2022-11-29T19:16:41.710Z,22.53
2022-11-29T19:19:09.390Z,23.10
2022-11-29T19:21:36.556Z,24.20
2022-11-29T19:24:07.747Z,24.40
2022-11-29T19:26:35.327Z,24.67
2022-11-29T19:29:03.227Z,25.87
2022-11-29T19:31:30.206Z,22.80
2022-11-29T19:33:58.337Z,22.07
2022-11-29T19:36:27.734Z,22.70
2022-11-29T19:38:56.211Z,24.10
2022-11-29T19:41:27.071Z,25.37
2022-11-29T19:43:57.384Z,24.03
2022-11-29T19:46:31.076Z,25.77
2022-11-29T19:48:59.338Z,24.20
2022-11-29T19:51:27.651Z,24.63
2022-11-29T19:53:58.739Z,22.43
2022-11-29T19:56:26.328Z,24.37
2022-11-29T19:58:54.586Z,24.57
2022-11-29T20:01:25.885Z,26.00
2022-11-29T20:03:55.555Z,24.30
2022-11-29T20:06:25.101Z,25.20
2022-11-29T20:08:52.035Z,25.33
2022-11-29T20:11:24.673Z,23.03
2022-11-29T20:14:02.547Z,23.17
2022-11-29T20:16:32.344Z,28.17
2022-11-29T20:18:59.967Z,25.23
2022-11-29T20:21:32.256Z,24.30
2022-11-29T20:24:04.793Z,24.47
2022-11-29T20:26:33.528Z,24.17
2022-11-29T20:29:01.805Z,25.70
2022-11-29T20:31:29.074Z,25.57
2022-11-29T20:33:57.519Z,25.47
2022-11-29T20:36:51.055Z,25.93
2022-11-29T20:39:36.662Z,25.90
2022-11-29T20:42:51.527Z,25.10
2022-11-29T20:45:18.786Z,24.67
2022-11-29T20:47:49.190Z,24.23
2022-11-29T20:50:23.702Z,24.37
2022-11-29T20:53:17.223Z,25.27
2022-11-29T20:55:47.928Z,26.47
2022-11-29T20:58:15.871Z,25.20
2022-11-29T21:00:43.355Z,26.63
2022-11-29T21:03:14.267Z,25.17
2022-11-29T21:05:41.261Z,26.70
2022-11-29T21:08:08.156Z,26.03
2022-11-29T21:10:35.339Z,28.20
2022-11-29T21:13:03.174Z,28.47
2022-11-29T21:15:30.393Z,27.57
2022-11-29T21:17:57.539Z,26.23
2022-11-29T21:20:26.526Z,26.57
2022-11-29T21:23:14.020Z,29.23
2022-11-29T21:25:55.916Z,26.70
2022-11-29T21:28:29.141Z,28.43
2022-11-29T21:30:56.323Z,27.63
2022-11-29T21:33:23.520Z,26.70
2022-11-29T21:35:54.469Z,26.50
2022-11-29T21:38:22.991Z,26.47
2022-11-29T21:40:49.848Z,30.13
2022-11-29T21:43:17.038Z,29.03
2022-11-29T21:45:47.519Z,31.23
2022-11-29T21:48:33.320Z,28.43
2022-11-29T21:51:00.203Z,26.80
2022-11-29T21:53:28.043Z,29.83
2022-11-29T21:55:59.368Z,30.90
2022-11-29T21:58:28.648Z,29.03
2022-11-29T22:00:55.660Z,27.97
2022-11-29T22:03:22.756Z,30.87
2022-11-29T22:05:49.498Z,28.87
2022-11-29T22:08:16.317Z,29.43
2022-11-29T22:10:43.296Z,31.43
2022-11-29T22:13:10.127Z,30.13
2022-11-29T22:15:36.940Z,31.50
2022-11-29T22:18:03.972Z,30.70
2022-11-29T22:20:30.814Z,30.37
2022-11-29T22:22:58.930Z,30.03
2022-11-29T22:25:25.910Z,30.43
2022-11-29T22:27:52.727Z,30.70
2022-11-29T22:30:19.650Z,31.37
2022-11-29T22:32:46.533Z,28.40
2022-11-29T22:35:13.467Z,30.63
2022-11-29T22:37:40.738Z,29.47
2022-11-29T22:40:08.249Z,30.57
2022-11-29T22:42:35.194Z,32.17
2022-11-29T22:45:04.270Z,32.13
2022-11-29T22:47:31.320Z,32.70
2022-11-29T22:49:58.460Z,32.13
2022-11-29T22:52:25.466Z,30.53
2022-11-29T22:54:52.377Z,33.57
2022-11-29T22:57:19.223Z,33.87
2022-11-29T22:59:46.049Z,30.87
2022-11-29T23:02:13.311Z,30.97
2022-11-29T23:04:40.266Z,28.73
2022-11-29T23:07:07.016Z,32.97
2022-11-29T23:09:33.886Z,32.87
2022-11-29T23:12:00.883Z,32.10
2022-11-29T23:14:27.626Z,35.10
2022-11-29T23:16:54.610Z,34.83
2022-11-29T23:19:21.488Z,33.63
2022-11-29T23:21:48.439Z,32.80
2022-11-29T23:24:15.992Z,31.50
2022-11-29T23:26:45.771Z,33.47
2022-11-29T23:29:16.687Z,34.80
2022-11-29T23:31:43.798Z,34.57
2022-11-29T23:34:10.798Z,33.93
2022-11-29T23:36:37.650Z,35.93
2022-11-29T23:39:06.783Z,32.07
2022-11-29T23:41:35.496Z,34.07
2022-11-29T23:44:04.437Z,34.60
2022-11-29T23:46:31.125Z,35.73
2022-11-29T23:48:57.996Z,36.23
2022-11-29T23:51:24.840Z,36.37
2022-11-29T23:53:55.120Z,34.77
2022-11-29T23:56:22.738Z,36.63
2022-11-29T23:58:49.786Z,36.17
